Hagerstown Regional Richard A Henson Field Hagerstown US
ICAO: KHGR
IATA: HGR
Category: Medium
Scheduled Services: No

Elevation: 703 ft
TransAlt. 18000 ft.

Airport Communications:
ASOS:126.375
WASHINGTON CNTR:134.15
CTAF:120.3
GND:121.9
AR OPS:32.3
LEESBURG RDO:109.8
TWR:120.3
UNICOM:122.95

KHGR Zoom In..

Runways:

(A) RW 02 length 3165 ft width 100 ft
---- / hdg 26

(B) RW 09 length 7000 ft width 150 ft
ILS 111.90 / hdg 92

(C) RW 20 length 3165 ft width 100 ft
---- / hdg 206

(D) RW 27 length 7000 ft width 150 ft
ILS 111.90 / hdg 272

Location; KHGR
Day. 19 / Time. 20.53 Zulu
* Altimeter: 30.08
* Temperature: 28° c. 82.4°f.
* Wind from: VRB° Speed 03 kn.
Dewpoint: 14° c.
Visibility: 10 Statute Miles.
Clouds: Overcast 6000 ft.

KHGR 192053Z VRB03KT 10SM OVC060 28/14 A3008 RMK AO2 SLP189 T02830139 56010


Wind From VRB°
Speed 03 kn.

 
 
jpsmedia.com for Web Design worldairports.se 2018   terms of use